Time;durP1;ratioP1;P1;durP2;ratioP2;P2;SDS_P1;SDS_P2;PMS_P1;PMS_P2;Temp;Humidity;BMP_temperature;BMP_pressure;BME280_temperature;BME280_humidity;BME280_pressure;Samples;Min_cycle;Max_cycle;Signal;HPM_P1;HPM_P2
2021/03/01 00:00:59;;;;;;;17.70;10.90;;;;;;;6.74;71.13;103299.69;5078068;28;20407;-73
2021/03/01 00:03:25;;;;;;;25.93;16.30;;;;;;;6.72;71.30;103309.03;5078076;28;20211;-74
2021/03/01 00:05:50;;;;;;;24.50;12.30;;;;;;;6.83;71.34;103312.34;5078045;28;20164;-74
2021/03/01 00:08:15;;;;;;;20.30;12.03;;;;;;;6.68;71.61;103302.72;5078608;28;20165;-72
2021/03/01 00:10:41;;;;;;;17.80;11.80;;;;;;;6.87;71.28;103298.78;5080565;28;20279;-73
2021/03/01 00:13:06;;;;;;;22.43;13.13;;;;;;;7.26;70.49;103297.00;5082048;28;20587;-73
2021/03/01 00:15:31;;;;;;;20.97;13.10;;;;;;;7.23;69.60;103299.41;5082279;28;20165;-71
2021/03/01 00:17:57;;;;;;;21.40;13.03;;;;;;;7.49;69.57;103297.59;5082019;28;20187;-74
2021/03/01 00:20:22;;;;;;;23.13;14.47;;;;;;;7.23;69.70;103302.00;5081847;28;20162;-73
2021/03/01 00:22:47;;;;;;;21.43;12.17;;;;;;;7.11;69.74;103304.69;5081770;28;20222;-74
2021/03/01 00:25:13;;;;;;;21.63;12.43;;;;;;;7.16;69.67;103297.22;5080768;28;20249;-73
2021/03/01 00:27:39;;;;;;;20.10;12.60;;;;;;;7.19;69.40;103295.69;5081627;28;20476;-73
2021/03/01 00:30:06;;;;;;;18.37;11.87;;;;;;;7.03;69.77;103290.31;5081937;28;20510;-75
2021/03/01 00:32:31;;;;;;;18.47;12.03;;;;;;;7.26;69.96;103291.81;5081408;28;20197;-76
2021/03/01 00:34:56;;;;;;;23.70;13.20;;;;;;;6.95;70.12;103289.81;5081528;28;20425;-76
2021/03/01 00:37:22;;;;;;;18.23;11.90;;;;;;;7.33;69.26;103286.19;5081148;28;20175;-78
2021/03/01 00:39:47;;;;;;;21.83;13.13;;;;;;;7.11;70.13;103296.00;5081541;28;20317;-76
2021/03/01 00:42:12;;;;;;;16.83;10.80;;;;;;;7.29;69.25;103292.00;5081389;28;20169;-77
2021/03/01 00:44:37;;;;;;;17.57;11.57;;;;;;;7.23;69.30;103279.53;5082237;28;20421;-76
2021/03/01 00:47:03;;;;;;;18.10;11.20;;;;;;;7.17;69.38;103284.34;5081585;28;20173;-76
2021/03/01 00:49:28;;;;;;;17.23;11.57;;;;;;;7.38;68.97;103281.31;5081283;28;20183;-75
2021/03/01 00:51:53;;;;;;;19.80;11.80;;;;;;;7.23;70.26;103279.53;5081320;28;20608;-75
2021/03/01 00:54:19;;;;;;;18.40;12.10;;;;;;;7.34;69.14;103272.44;5080951;28;20172;-77
2021/03/01 00:56:44;;;;;;;17.80;11.80;;;;;;;7.37;68.85;103264.88;5080191;28;20165;-77
2021/03/01 00:59:09;;;;;;;19.57;11.60;;;;;;;7.45;68.43;103265.31;5081610;28;20219;-75
2021/03/01 01:01:35;;;;;;;18.70;11.93;;;;;;;7.06;69.89;103265.50;5080752;28;20165;-73
2021/03/01 01:04:00;;;;;;;20.77;13.10;;;;;;;6.99;70.40;103265.88;5080914;28;20169;-74
2021/03/01 01:06:25;;;;;;;18.43;11.70;;;;;;;6.91;71.03;103264.47;5065752;28;20184;-75
2021/03/01 01:08:51;;;;;;;19.63;12.40;;;;;;;7.12;70.07;103261.47;5081627;28;20173;-75
2021/03/01 01:11:16;;;;;;;20.37;12.20;;;;;;;6.86;69.79;103265.88;5081007;28;20542;-75
2021/03/01 01:13:42;;;;;;;21.13;12.60;;;;;;;7.19;69.72;103271.47;5081179;28;20164;-75
2021/03/01 01:16:07;;;;;;;20.90;13.17;;;;;;;7.00;70.59;103267.66;5080683;28;20172;-74
2021/03/01 01:18:32;;;;;;;23.57;13.67;;;;;;;7.24;69.66;103267.47;5080595;28;20185;-75
2021/03/01 01:20:58;;;;;;;20.90;12.10;;;;;;;7.51;68.76;103259.63;5080098;28;20465;-75
2021/03/01 01:23:23;;;;;;;24.83;14.60;;;;;;;7.35;69.03;103261.25;5080324;28;20169;-74
2021/03/01 01:25:48;;;;;;;24.03;14.23;;;;;;;7.60;68.11;103260.19;5080265;28;20227;-75
2021/03/01 01:28:14;;;;;;;24.83;13.47;;;;;;;7.54;68.21;103252.94;5080807;28;20169;-75
2021/03/01 01:30:39;;;;;;;22.23;13.77;;;;;;;7.50;68.61;103253.53;5080080;28;20192;-73
2021/03/01 01:33:05;;;;;;;22.57;14.27;;;;;;;7.24;68.93;103251.91;5080144;28;20210;-72
2021/03/01 01:35:30;;;;;;;21.57;13.70;;;;;;;7.19;69.08;103245.53;5080613;28;20197;-75
2021/03/01 01:37:56;;;;;;;21.20;12.73;;;;;;;7.29;69.65;103240.09;5080254;28;20188;-75
2021/03/01 01:40:22;;;;;;;19.23;12.00;;;;;;;7.10;69.08;103230.25;5080090;28;20219;-75
2021/03/01 01:42:49;;;;;;;19.97;12.73;;;;;;;7.39;68.25;103237.31;5080557;28;20598;-74
2021/03/01 01:45:19;;;;;;;22.67;12.43;;;;;;;7.44;68.54;103231.50;5080091;28;20412;-76
2021/03/01 01:47:46;;;;;;;19.77;12.50;;;;;;;7.60;68.37;103229.06;5080194;28;20891;-74
2021/03/01 01:50:12;;;;;;;19.90;12.97;;;;;;;7.29;69.33;103232.31;5080187;28;20415;-76
2021/03/01 01:52:38;;;;;;;17.67;11.90;;;;;;;7.47;69.15;103231.69;5079745;28;20407;-73
2021/03/01 01:55:05;;;;;;;17.40;11.00;;;;;;;7.22;69.11;103233.63;5079850;28;20423;-76
2021/03/01 01:57:30;;;;;;;17.50;11.97;;;;;;;7.33;68.61;103226.53;5079338;28;20172;-75
2021/03/01 01:59:56;;;;;;;19.00;10.93;;;;;;;7.24;68.73;103231.16;5079157;28;20404;-73
2021/03/01 02:02:21;;;;;;;17.17;11.00;;;;;;;7.57;68.15;103234.06;5078788;28;20245;-72
2021/03/01 02:04:55;;;;;;;17.13;11.70;;;;;;;7.40;68.42;103226.13;5079827;28;20180;-71
2021/03/01 02:07:26;;;;;;;18.53;11.23;;;;;;;7.38;68.46;103219.91;5078939;28;20207;-71
2021/03/01 02:10:03;;;;;;;16.67;11.10;;;;;;;7.05;69.39;103227.38;5078823;28;20426;-72
2021/03/01 02:12:53;;;;;;;18.87;12.07;;;;;;;7.33;68.75;103223.03;5078363;28;20880;-72
2021/03/01 02:15:33;;;;;;;19.47;10.97;;;;;;;7.22;68.66;103237.94;5078831;28;20423;-72
2021/03/01 02:17:58;;;;;;;17.00;11.17;;;;;;;7.08;69.32;103243.13;5080207;28;20399;-72
2021/03/01 02:20:24;;;;;;;17.87;11.10;;;;;;;6.58;71.81;103239.03;5079699;28;20423;-74
2021/03/01 02:22:49;;;;;;;16.27;10.73;;;;;;;7.17;69.30;103244.50;5078591;28;20185;-72
2021/03/01 02:25:18;;;;;;;20.17;12.30;;;;;;;7.24;68.93;103244.13;5079322;28;20463;-72
2021/03/01 02:27:52;;;;;;;19.63;11.97;;;;;;;7.00;69.02;103246.91;5079474;28;20189;-71
2021/03/01 02:30:25;;;;;;;20.17;12.10;;;;;;;6.93;69.46;103241.22;5078262;28;20411;-72
2021/03/01 02:32:52;;;;;;;17.73;12.07;;;;;;;6.72;69.82;103239.97;5078439;28;20407;-71
2021/03/01 02:35:20;;;;;;;21.47;11.97;;;;;;;6.69;69.67;103237.13;5078327;28;20476;-71
2021/03/01 02:37:46;;;;;;;17.73;10.67;;;;;;;6.72;70.08;103236.44;5078535;28;20403;-72
2021/03/01 02:40:12;;;;;;;21.20;11.73;;;;;;;6.73;69.64;103235.66;5079022;28;20404;-75
2021/03/01 02:42:38;;;;;;;15.10;11.30;;;;;;;7.08;68.52;103237.94;5078104;28;20411;-74
2021/03/01 02:45:05;;;;;;;16.60;10.17;;;;;;;7.14;68.20;103241.72;5078259;28;20184;-73
2021/03/01 02:47:30;;;;;;;18.67;10.30;;;;;;;6.81;68.46;103241.34;5080582;28;20454;-74
2021/03/01 02:49:56;;;;;;;15.63;10.27;;;;;;;7.24;68.20;103242.41;5078941;28;20443;-73
2021/03/01 02:52:23;;;;;;;19.60;12.30;;;;;;;7.03;68.39;103238.44;5077706;28;20262;-74
2021/03/01 02:54:49;;;;;;;19.27;11.17;;;;;;;6.79;68.92;103237.75;5078751;28;20418;-72
2021/03/01 02:57:16;;;;;;;16.10;10.10;;;;;;;7.03;68.37;103241.91;5078133;28;20876;-73
2021/03/01 02:59:42;;;;;;;18.30;10.93;;;;;;;6.78;70.16;103243.72;5078149;28;20414;-73
2021/03/01 03:02:08;;;;;;;16.70;10.70;;;;;;;7.45;68.13;103241.09;5079266;28;20848;-71
2021/03/01 03:04:33;;;;;;;13.07;9.60;;;;;;;7.75;66.41;103240.41;5078855;28;20179;-72
2021/03/01 03:06:59;;;;;;;17.33;10.30;;;;;;;7.11;68.47;103242.44;5077932;28;20173;-73
2021/03/01 03:09:25;;;;;;;14.73;10.00;;;;;;;7.08;67.93;103244.84;5078573;28;20173;-72
2021/03/01 03:11:50;;;;;;;14.27;9.40;;;;;;;6.82;68.52;103248.31;5078463;28;20205;-72
2021/03/01 03:14:18;;;;;;;12.63;9.07;;;;;;;6.56;69.40;103251.00;5077960;28;20828;-73
2021/03/01 03:16:45;;;;;;;14.67;9.60;;;;;;;6.97;68.89;103254.50;5078993;28;20168;-71
2021/03/01 03:19:10;;;;;;;14.00;9.73;;;;;;;7.16;67.37;103247.94;5078541;28;20493;-72
2021/03/01 03:21:35;;;;;;;13.73;9.23;;;;;;;7.28;67.60;103251.31;5078275;28;20800;-72
2021/03/01 03:24:04;;;;;;;16.30;10.50;;;;;;;7.31;67.50;103248.00;5078942;28;20535;-72
2021/03/01 03:26:30;;;;;;;16.13;10.50;;;;;;;7.15;67.91;103253.91;5078315;28;20273;-72
2021/03/01 03:28:55;;;;;;;18.73;10.50;;;;;;;6.96;69.58;103242.34;5078470;28;20431;-71
2021/03/01 03:31:20;;;;;;;14.03;9.77;;;;;;;7.05;68.13;103245.53;5078541;28;20191;-72
2021/03/01 03:33:45;;;;;;;14.30;9.83;;;;;;;6.89;69.34;103245.34;5078509;28;20245;-72
2021/03/01 03:36:12;;;;;;;18.10;10.90;;;;;;;7.01;69.34;103250.41;5077926;28;20464;-72
2021/03/01 03:38:48;;;;;;;17.43;10.50;;;;;;;7.00;69.44;103248.63;5078766;28;20169;-71
2021/03/01 03:41:13;;;;;;;15.07;9.57;;;;;;;6.88;69.37;103249.59;5077581;28;20452;-73
2021/03/01 03:43:40;;;;;;;15.43;10.03;;;;;;;6.80;69.60;103249.91;5077761;28;20703;-72
2021/03/01 03:46:07;;;;;;;16.93;10.83;;;;;;;6.80;69.06;103248.22;5077254;28;20411;-71
2021/03/01 03:48:32;;;;;;;14.63;9.30;;;;;;;6.88;69.68;103251.31;5077831;28;20497;-72
2021/03/01 03:50:59;;;;;;;14.90;9.80;;;;;;;7.12;68.55;103248.50;5077891;28;20546;-72
2021/03/01 03:53:27;;;;;;;14.33;9.73;;;;;;;6.94;68.86;103243.94;5078340;28;20230;-73
2021/03/01 03:55:55;;;;;;;14.03;9.60;;;;;;;6.88;69.54;103247.00;5078623;28;20403;-72
2021/03/01 03:58:23;;;;;;;16.03;10.20;;;;;;;6.81;70.27;103251.72;5078685;28;20665;-72
2021/03/01 04:00:53;;;;;;;19.00;11.20;;;;;;;7.28;67.82;103250.38;5077387;28;20506;-72
2021/03/01 04:03:18;;;;;;;16.97;9.73;;;;;;;6.88;68.93;103256.50;5077936;28;20829;-72
2021/03/01 04:05:45;;;;;;;17.03;10.77;;;;;;;7.04;68.74;103254.09;5078536;28;20395;-72
2021/03/01 04:08:12;;;;;;;13.40;10.60;;;;;;;7.29;67.85;103262.56;5077481;28;20169;-72
2021/03/01 04:10:37;;;;;;;14.67;10.93;;;;;;;6.61;69.67;103269.44;5060340;28;20895;-71
2021/03/01 04:13:07;;;;;;;16.60;10.50;;;;;;;6.99;69.01;103252.03;5077866;28;20407;-72
2021/03/01 04:15:33;;;;;;;19.40;12.07;;;;;;;6.83;69.74;103244.94;5077443;28;20173;-72
2021/03/01 04:17:59;;;;;;;16.50;11.03;;;;;;;6.72;69.95;103246.81;5079144;28;20403;-72
2021/03/01 04:20:27;;;;;;;16.40;11.07;;;;;;;6.76;70.07;103253.09;5079790;28;20177;-71
2021/03/01 04:22:54;;;;;;;19.67;12.20;;;;;;;6.60;70.53;103264.16;5077883;28;20500;-72
2021/03/01 04:25:20;;;;;;;18.17;11.23;;;;;;;6.32;71.19;103264.88;5077080;28;20455;-72
2021/03/01 04:27:46;;;;;;;16.70;11.50;;;;;;;6.70;69.84;103256.19;5078352;28;20431;-71
2021/03/01 04:30:13;;;;;;;18.00;11.30;;;;;;;6.73;69.56;103257.28;5077287;28;20407;-74
2021/03/01 04:32:44;;;;;;;17.93;11.47;;;;;;;6.65;70.15;103261.06;5078023;28;20201;-72
2021/03/01 04:35:12;;;;;;;20.17;13.10;;;;;;;6.54;70.26;103260.34;5077943;28;20800;-72
2021/03/01 04:37:37;;;;;;;15.83;11.03;;;;;;;6.78;70.34;103256.69;5077718;28;20771;-72
2021/03/01 04:40:04;;;;;;;19.97;11.33;;;;;;;6.66;70.37;103262.88;5077715;28;20494;-72
2021/03/01 04:42:31;;;;;;;14.37;9.40;;;;;;;6.83;69.08;103270.84;5077924;28;20161;-72
2021/03/01 04:44:57;;;;;;;18.87;12.53;;;;;;;6.62;69.37;103267.75;5077578;28;20669;-72
2021/03/01 04:47:25;;;;;;;17.87;11.53;;;;;;;6.86;69.20;103271.03;5077688;28;20419;-71
2021/03/01 04:49:50;;;;;;;18.70;11.83;;;;;;;7.25;67.91;103264.97;5077594;28;20193;-71
2021/03/01 04:52:15;;;;;;;17.90;11.60;;;;;;;6.95;68.18;103274.25;5077550;28;20517;-72
2021/03/01 04:54:41;;;;;;;17.57;10.97;;;;;;;7.09;68.54;103275.16;5077660;28;20177;-72
2021/03/01 04:57:07;;;;;;;17.23;10.37;;;;;;;6.69;69.14;103277.72;5079052;28;20169;-71
2021/03/01 04:59:33;;;;;;;19.00;11.60;;;;;;;6.72;68.97;103271.06;5080473;28;20179;-72
2021/03/01 05:01:59;;;;;;;17.90;10.90;;;;;;;6.74;69.00;103269.44;5080322;28;20415;-71
2021/03/01 05:04:24;;;;;;;18.90;11.60;;;;;;;6.61;69.16;103266.84;5081453;28;20175;-72
2021/03/01 05:06:49;;;;;;;16.93;10.70;;;;;;;6.86;69.09;103274.56;5080567;28;20192;-73
2021/03/01 05:09:15;;;;;;;17.93;11.10;;;;;;;6.77;69.48;103275.66;5080468;28;20200;-72
2021/03/01 05:11:40;;;;;;;19.53;10.40;;;;;;;7.02;68.55;103271.28;5080655;28;20204;-72
2021/03/01 05:14:07;;;;;;;17.53;11.30;;;;;;;7.10;68.35;103266.56;5080851;28;20169;-72
2021/03/01 05:16:32;;;;;;;17.80;10.70;;;;;;;6.78;68.43;103261.88;5080810;28;20191;-72
2021/03/01 05:18:58;;;;;;;21.73;11.40;;;;;;;6.89;68.36;103263.50;5081113;28;20407;-71
2021/03/01 05:21:24;;;;;;;18.20;10.80;;;;;;;6.52;69.48;103264.53;5082958;28;20169;-72
2021/03/01 05:23:49;;;;;;;17.00;11.13;;;;;;;6.53;69.28;103261.13;5092882;28;20433;-73
2021/03/01 05:26:16;;;;;;;15.93;10.73;;;;;;;6.47;69.31;103267.59;5092940;28;20228;-72
2021/03/01 05:28:41;;;;;;;18.10;11.70;;;;;;;6.52;69.74;103253.25;5093490;28;20188;-73
2021/03/01 05:31:07;;;;;;;22.07;11.10;;;;;;;6.50;69.23;103265.25;5089333;28;20871;-72
2021/03/01 05:33:33;;;;;;;15.17;10.20;;;;;;;6.62;69.04;103260.88;5082956;28;20165;-72
2021/03/01 05:35:58;;;;;;;18.47;11.93;;;;;;;6.26;70.51;103262.78;5087213;28;20175;-74
2021/03/01 05:38:24;;;;;;;19.33;12.60;;;;;;;6.66;69.07;103261.97;5085683;28;20172;-72
2021/03/01 05:40:49;;;;;;;17.67;11.30;;;;;;;6.73;69.59;103259.88;5081130;28;20172;-71
2021/03/01 05:43:15;;;;;;;16.37;11.73;;;;;;;6.73;68.42;103267.66;5081095;28;20549;-72
2021/03/01 05:45:42;;;;;;;19.60;11.03;;;;;;;6.78;68.80;103267.06;5082182;28;20176;-71
2021/03/01 05:48:10;;;;;;;17.73;11.90;;;;;;;6.49;69.88;103271.22;5091343;28;20173;-72
2021/03/01 05:50:36;;;;;;;16.30;10.57;;;;;;;6.87;67.98;103260.81;5092054;28;20415;-71
2021/03/01 05:53:02;;;;;;;18.03;11.43;;;;;;;6.59;68.74;103265.84;5084617;28;20391;-72
2021/03/01 05:55:28;;;;;;;17.30;11.80;;;;;;;6.56;68.88;103268.22;5081415;28;20415;-72
2021/03/01 05:57:54;;;;;;;16.37;11.47;;;;;;;6.43;69.07;103269.09;5081357;28;20457;-73
2021/03/01 06:00:19;;;;;;;17.57;11.97;;;;;;;6.54;69.21;103267.25;5083202;28;20165;-71
2021/03/01 06:02:45;;;;;;;17.50;12.83;;;;;;;6.61;68.57;103265.94;5079703;28;20498;-72
2021/03/01 06:05:10;;;;;;;18.70;11.70;;;;;;;6.71;68.13;103266.66;5080411;28;20161;-72
2021/03/01 06:07:36;;;;;;;16.87;10.90;;;;;;;6.64;69.36;103266.16;5080807;28;20531;-71
2021/03/01 06:10:01;;;;;;;14.80;10.80;;;;;;;6.86;68.61;103266.78;5079724;28;20179;-72
2021/03/01 06:12:27;;;;;;;16.60;11.43;;;;;;;6.72;68.24;103268.47;5079507;28;20209;-71
2021/03/01 06:14:54;;;;;;;20.70;12.37;;;;;;;6.79;68.12;103268.84;5080196;28;20540;-72
2021/03/01 06:17:20;;;;;;;17.67;12.20;;;;;;;6.80;68.55;103262.88;5079763;28;20473;-71
2021/03/01 06:19:49;;;;;;;20.33;13.13;;;;;;;7.09;67.03;103267.38;5079767;28;20407;-72
2021/03/01 06:22:15;;;;;;;18.50;13.33;;;;;;;6.69;68.31;103273.44;5079844;28;20165;-72
2021/03/01 06:24:41;;;;;;;20.93;13.47;;;;;;;6.23;69.26;103270.34;5079668;28;20726;-71
2021/03/01 06:27:08;;;;;;;24.57;14.67;;;;;;;6.26;69.78;103278.31;5079201;28;20475;-72
2021/03/01 06:29:33;;;;;;;20.80;12.50;;;;;;;6.06;69.65;103282.13;5079955;28;20204;-71
2021/03/01 06:31:59;;;;;;;20.43;12.80;;;;;;;6.35;69.16;103275.47;5078515;28;20505;-71
2021/03/01 06:34:27;;;;;;;20.17;13.60;;;;;;;6.70;66.82;103280.41;5079510;28;20165;-71
2021/03/01 06:36:55;;;;;;;19.50;12.50;;;;;;;6.76;66.89;103281.63;5080296;28;20395;-72
2021/03/01 06:39:31;;;;;;;19.83;12.40;;;;;;;6.52;67.15;103280.09;5079294;28;20486;-72
2021/03/01 06:41:57;;;;;;;18.33;13.27;;;;;;;6.50;67.86;103285.97;5079022;28;20465;-72
2021/03/01 06:44:22;;;;;;;25.10;13.20;;;;;;;6.15;69.45;103284.47;5079352;28;20427;-71
2021/03/01 06:46:52;;;;;;;19.20;12.93;;;;;;;6.10;70.15;103291.00;5079101;28;20162;-72
2021/03/01 06:49:19;;;;;;;20.23;13.50;;;;;;;6.17;69.96;103293.22;5079597;28;20584;-72
2021/03/01 06:51:44;;;;;;;21.23;12.73;;;;;;;6.20;69.41;103286.56;5078770;28;20549;-72
2021/03/01 06:54:10;;;;;;;22.50;12.60;;;;;;;6.05;70.29;103291.59;5079058;28;20518;-72
2021/03/01 06:56:40;;;;;;;18.70;11.63;;;;;;;6.22;68.84;103286.66;5078906;28;20462;-72
2021/03/01 06:59:13;;;;;;;21.23;12.37;;;;;;;5.98;68.73;103294.56;5078947;28;20491;-72
2021/03/01 07:01:56;;;;;;;17.57;11.00;;;;;;;6.04;68.42;103292.38;5078027;28;20422;-72
2021/03/01 07:04:29;;;;;;;19.27;11.30;;;;;;;6.27;67.47;103292.19;5078972;28;20830;-72
2021/03/01 07:06:56;;;;;;;23.63;14.27;;;;;;;6.72;66.75;103280.50;5078796;28;20415;-70
2021/03/01 07:09:24;;;;;;;20.07;12.00;;;;;;;6.45;66.92;103282.16;5078740;28;20874;-71
2021/03/01 07:11:50;;;;;;;18.30;12.30;;;;;;;6.61;66.69;103278.91;5078676;28;20723;-71
2021/03/01 07:14:26;;;;;;;22.63;13.57;;;;;;;6.48;67.34;103283.28;5079246;28;20430;-71
2021/03/01 07:16:56;;;;;;;21.47;11.77;;;;;;;6.63;66.76;103269.53;5078746;28;20214;-71
2021/03/01 07:19:22;;;;;;;21.63;11.90;;;;;;;6.74;65.48;103272.03;5077926;28;20403;-72
2021/03/01 07:21:53;;;;;;;22.47;13.10;;;;;;;6.98;65.95;103276.16;5078477;28;20812;-72
2021/03/01 07:24:21;;;;;;;19.50;12.13;;;;;;;6.65;66.04;103279.22;5078583;28;20419;-72
2021/03/01 07:26:47;;;;;;;19.77;12.37;;;;;;;6.47;66.18;103278.88;5078591;28;20471;-72
2021/03/01 07:29:15;;;;;;;22.87;13.37;;;;;;;6.82;65.00;103285.53;5078431;28;20486;-71
2021/03/01 07:31:49;;;;;;;22.23;13.73;;;;;;;6.56;66.79;103281.19;5078605;28;20188;-71
2021/03/01 07:34:16;;;;;;;22.73;14.90;;;;;;;6.67;65.89;103287.09;5077794;28;20541;-73
2021/03/01 07:36:42;;;;;;;23.63;14.63;;;;;;;6.33;66.71;103283.13;5078287;28;20406;-70
2021/03/01 07:39:09;;;;;;;20.57;13.20;;;;;;;6.66;65.75;103293.97;5078439;28;20685;-71
2021/03/01 07:41:35;;;;;;;22.03;12.57;;;;;;;6.71;65.43;103296.84;5078246;28;20165;-71
2021/03/01 07:44:00;;;;;;;24.40;14.40;;;;;;;5.94;67.71;103302.88;5078862;28;20672;-72
2021/03/01 07:46:29;;;;;;;18.27;12.23;;;;;;;5.93;67.71;103300.16;5078452;28;20426;-72
2021/03/01 07:48:57;;;;;;;19.03;12.90;;;;;;;6.42;67.03;103292.31;5078279;28;20191;-72
2021/03/01 07:51:41;;;;;;;21.43;12.70;;;;;;;6.87;64.97;103296.19;5077977;28;20450;-71
2021/03/01 07:54:07;;;;;;;23.30;13.30;;;;;;;6.76;65.56;103298.06;5078282;28;20413;-73
2021/03/01 07:56:39;;;;;;;24.13;14.70;;;;;;;6.88;64.76;103296.28;5078254;28;20808;-72
2021/03/01 07:59:08;;;;;;;22.87;14.83;;;;;;;6.99;64.62;103294.41;5078284;28;20499;-71
2021/03/01 08:01:35;;;;;;;22.17;12.83;;;;;;;6.51;65.64;103292.97;5078658;28;20715;-69
2021/03/01 08:04:00;;;;;;;18.20;11.73;;;;;;;6.86;65.91;103296.97;5078263;28;20411;-70
2021/03/01 08:06:55;;;;;;;23.40;14.40;;;;;;;7.47;63.35;103296.56;5078081;28;20476;-71
2021/03/01 08:09:41;;;;;;;18.83;11.93;;;;;;;6.83;64.71;103291.59;5078044;28;20169;-72
2021/03/01 08:12:06;;;;;;;19.43;12.87;;;;;;;6.99;63.71;103298.69;5078040;28;20455;-72
2021/03/01 08:14:53;;;;;;;20.33;11.60;;;;;;;6.86;64.04;103297.91;5077974;28;20427;-72
2021/03/01 08:17:28;;;;;;;18.77;13.00;;;;;;;6.92;64.36;103300.00;5077805;28;20172;-72
2021/03/01 08:20:20;;;;;;;18.47;11.57;;;;;;;6.83;64.50;103302.88;5078421;28;20682;-72
2021/03/01 08:23:07;;;;;;;20.80;12.63;;;;;;;6.20;64.96;103303.81;5078217;28;20417;-73
2021/03/01 08:25:41;;;;;;;17.03;11.30;;;;;;;6.64;64.53;103311.09;5077783;28;20932;-71
2021/03/01 08:28:07;;;;;;;17.00;12.63;;;;;;;6.86;63.64;103312.53;5077860;28;20662;-72
2021/03/01 08:30:33;;;;;;;20.70;11.10;;;;;;;6.89;63.44;103313.66;5078406;28;20426;-72
2021/03/01 08:33:07;;;;;;;17.33;11.20;;;;;;;7.32;62.37;103310.38;5081495;28;20171;-72
2021/03/01 08:35:33;;;;;;;15.13;11.20;;;;;;;7.18;63.12;103308.56;5081564;28;20403;-71
2021/03/01 08:37:59;;;;;;;16.27;10.60;;;;;;;7.66;61.77;103303.81;5081712;28;20433;-72
2021/03/01 08:40:24;;;;;;;18.63;11.70;;;;;;;7.65;61.41;103302.06;5081882;28;20431;-72
2021/03/01 08:43:01;;;;;;;14.90;11.57;;;;;;;7.41;61.48;103304.88;5081301;28;20582;-72
2021/03/01 08:45:28;;;;;;;15.10;10.90;;;;;;;7.49;61.46;103307.97;5081409;28;20165;-71
2021/03/01 08:47:56;;;;;;;15.40;10.93;;;;;;;7.23;62.13;103309.78;5081285;28;20418;-73
2021/03/01 08:50:24;;;;;;;17.33;10.70;;;;;;;7.12;62.58;103311.69;5080214;28;20705;-74
2021/03/01 08:52:49;;;;;;;16.40;11.33;;;;;;;7.20;62.41;103309.59;5081199;28;20446;-74
2021/03/01 08:55:19;;;;;;;17.10;10.77;;;;;;;6.87;62.26;103309.16;5080904;28;20411;-74
2021/03/01 08:57:58;;;;;;;15.80;11.23;;;;;;;7.00;62.88;103306.56;5081035;28;20203;-72
2021/03/01 09:00:24;;;;;;;16.20;10.47;;;;;;;6.84;62.75;103309.84;5081300;28;20414;-72
2021/03/01 09:02:49;;;;;;;18.70;9.93;;;;;;;6.74;62.69;103310.94;5080942;28;20510;-72
2021/03/01 09:05:18;;;;;;;13.83;10.63;;;;;;;7.05;61.72;103310.38;5081474;28;20498;-72
2021/03/01 09:07:44;;;;;;;17.63;10.60;;;;;;;7.34;61.26;103319.16;5080775;28;20173;-72
2021/03/01 09:10:10;;;;;;;13.30;9.40;;;;;;;7.13;61.72;103317.75;5080781;28;20427;-72
2021/03/01 09:12:36;;;;;;;17.13;10.87;;;;;;;7.17;61.08;103311.97;5081205;28;20935;-72
2021/03/01 09:15:02;;;;;;;20.37;11.03;;;;;;;7.05;61.33;103312.97;5079993;28;20471;-73
2021/03/01 09:17:27;;;;;;;17.17;13.20;;;;;;;7.62;60.52;103310.53;5080771;28;20172;-72
2021/03/01 09:19:56;;;;;;;14.10;10.40;;;;;;;6.77;62.05;103311.94;5081304;28;20403;-72
2021/03/01 09:22:21;;;;;;;14.93;9.80;;;;;;;7.96;59.81;103315.25;5080441;28;20169;-72
2021/03/01 09:24:46;;;;;;;18.37;10.60;;;;;;;7.78;59.15;103316.69;5080425;28;20430;-72
2021/03/01 09:27:11;;;;;;;20.93;13.60;;;;;;;7.57;60.48;103311.94;5081415;28;20203;-73
2021/03/01 09:29:37;;;;;;;20.80;13.73;;;;;;;8.20;60.10;103304.53;5080483;28;20176;-73
2021/03/01 09:32:03;;;;;;;19.47;12.90;;;;;;;7.96;60.31;103304.84;5080209;28;20586;-73
2021/03/01 09:34:28;;;;;;;16.80;12.70;;;;;;;8.09;59.58;103310.00;5080685;28;20386;-71
2021/03/01 09:36:54;;;;;;;23.07;13.70;;;;;;;8.11;60.35;103311.81;5079978;28;20414;-72
2021/03/01 09:39:25;;;;;;;26.43;18.30;;;;;;;7.88;59.20;103314.75;5079664;28;20213;-74
2021/03/01 09:41:52;;;;;;;26.37;17.93;;;;;;;7.99;58.78;103310.22;5080135;28;20184;-73
2021/03/01 09:44:29;;;;;;;27.93;18.80;;;;;;;8.05;58.71;103308.03;5080229;28;20462;-73
2021/03/01 09:46:56;;;;;;;23.20;16.70;;;;;;;8.53;57.18;103312.63;5080473;28;20407;-73
2021/03/01 09:49:22;;;;;;;23.00;17.23;;;;;;;9.08;55.13;103304.56;5080148;28;20422;-72
2021/03/01 09:51:48;;;;;;;22.90;15.80;;;;;;;10.37;52.00;103304.59;5079804;28;20455;-73
2021/03/01 09:54:14;;;;;;;21.10;15.70;;;;;;;11.70;48.25;103295.38;5079438;28;20667;-73
2021/03/01 09:56:50;;;;;;;18.90;13.63;;;;;;;11.15;48.63;103299.78;5079672;28;20638;-72
2021/03/01 09:59:35;;;;;;;26.63;14.33;;;;;;;10.20;50.99;103304.59;5059442;28;20169;-74
2021/03/01 10:02:20;;;;;;;27.37;20.87;;;;;;;9.97;52.07;103311.16;5059397;28;20382;-73
2021/03/01 10:04:46;;;;;;;20.27;14.73;;;;;;;9.87;52.84;103309.78;5059666;28;20424;-75
2021/03/01 10:07:40;;;;;;;19.90;14.17;;;;;;;10.40;52.15;103310.84;5059617;28;20391;-76
2021/03/01 10:10:14;;;;;;;26.83;21.00;;;;;;;9.65;53.00;103312.94;5063412;28;20459;-74
2021/03/01 10:12:44;;;;;;;28.03;20.20;;;;;;;9.60;53.05;103307.44;5058671;28;20459;-75
2021/03/01 10:15:10;;;;;;;29.47;22.27;;;;;;;9.31;53.64;103313.66;5059400;28;21532;-75
2021/03/01 10:17:35;;;;;;;25.57;19.40;;;;;;;9.90;53.14;103311.66;5058819;28;20447;-76
2021/03/01 10:20:09;;;;;;;23.00;16.57;;;;;;;9.38;53.52;103313.19;5059347;28;20401;-74
2021/03/01 10:22:56;;;;;;;22.77;18.00;;;;;;;9.24;53.76;103321.91;5060593;28;20158;-75
2021/03/01 10:25:33;;;;;;;24.33;18.90;;;;;;;8.15;57.58;103318.97;5060001;28;20448;-74
2021/03/01 10:27:58;;;;;;;25.83;18.20;;;;;;;9.17;55.14;103317.19;5059917;28;20443;-76
2021/03/01 10:30:23;;;;;;;25.40;18.87;;;;;;;9.37;54.72;103318.31;5058490;28;20491;-78
2021/03/01 10:32:49;;;;;;;24.37;18.03;;;;;;;9.46;55.22;103318.84;5059067;28;20201;-77
2021/03/01 10:35:18;;;;;;;27.40;17.40;;;;;;;9.66;54.13;103316.41;5058621;28;20230;-74
2021/03/01 10:38:19;;;;;;;24.20;16.93;;;;;;;9.40;54.97;103324.59;5059144;28;20417;-75
2021/03/01 10:40:44;;;;;;;26.50;18.70;;;;;;;9.35;54.54;103320.84;5077421;28;20419;-76
2021/03/01 10:43:11;;;;;;;23.60;17.90;;;;;;;9.81;54.22;103322.50;5062975;28;20416;-73
2021/03/01 10:45:40;;;;;;;27.30;17.90;;;;;;;9.48;54.37;103326.72;5058798;28;20165;-73
2021/03/01 10:48:06;;;;;;;32.60;21.93;;;;;;;9.26;54.40;103328.13;5059462;28;20400;-72
2021/03/01 10:50:31;;;;;;;33.57;21.27;;;;;;;10.02;53.11;103322.72;5058028;28;20395;-74
2021/03/01 10:52:57;;;;;;;31.10;21.30;;;;;;;9.09;55.37;103332.34;5058809;28;20189;-72
2021/03/01 10:55:22;;;;;;;33.07;21.70;;;;;;;9.62;54.31;103328.41;5058159;28;20429;-73
2021/03/01 10:57:47;;;;;;;27.70;21.70;;;;;;;9.46;53.77;103334.44;5067581;28;20177;-73
2021/03/01 11:00:13;;;;;;;32.40;21.70;;;;;;;9.93;52.82;103328.34;5078640;28;20172;-75
2021/03/01 11:02:38;;;;;;;32.87;23.73;;;;;;;9.88;52.88;103328.94;5078557;28;20167;-74
2021/03/01 11:05:04;;;;;;;33.13;22.93;;;;;;;9.51;53.88;103332.09;5078107;28;20208;-73
2021/03/01 11:07:29;;;;;;;32.07;22.40;;;;;;;9.87;53.17;103328.00;5079233;28;20204;-71
2021/03/01 11:09:55;;;;;;;32.07;23.90;;;;;;;9.82;52.89;103328.56;5084858;28;20172;-72
2021/03/01 11:12:20;;;;;;;32.43;24.03;;;;;;;9.84;52.34;103316.56;5081852;28;20205;-74
2021/03/01 11:14:45;;;;;;;34.10;22.40;;;;;;;9.47;54.15;103333.66;5083488;28;20180;-72
2021/03/01 11:17:11;;;;;;;30.90;24.33;;;;;;;10.11;52.58;103322.34;5084518;28;20179;-71
2021/03/01 11:19:37;;;;;;;36.10;23.90;;;;;;;10.12;52.49;103326.75;5084173;28;20202;-72